Penitentiary, Colorado
Current Conditions -  °F | °C
As of 3:35 PM on Monday 24 Nov 2014 (Local Time) from K1V6 Reporting Station
Clear Clear  
Wind Chill: 36°   Ceiling: Unl
Heat Index: 43°   Visibility: 10mi
Dew Point:   Wind: 14mph
Humidity: 18%   Direction: 310°NW
Pressure: 30.05"   Gusts: 20mph
Location:  38.533°N, 105.389°W
Report Text: K1V6 242235Z AUTO 31012G17KT 10SM CLR 06/M17 A3005 RMK AO2
Loading
Personal Weather Stations






























Interactive Weather Map New forecast layout! Learn more

10-Day Weather Forecast

Advertisements
Track Severe Weather on mobile